KJYL

Plantation Arpk Airport

Sylvania, Georgia, USA
METAR KJYL 191035Z AUTO 00000KT 23/23 A2994 RMK AO2 T02310229 PWINO
Observed Flight Rules
Sep-19 @ 10:35 UTC (28 minutes ago)
Temperatures Readings
Current 23°C / 73°F
Dewpoint 23°C / 73°F
Humidity 100%
Altimeter 29.94" Hg
Pressure 1014 hPa
Elevation 57
METAR KJYL 191035Z AUTO 00000KT 23/23 A2994 RMK AO2 T02310229 PWINO
Observed Flight Rules
Sep-19 @ 10:35 UTC
(28 minutes ago)
Temperature Dewpoint
23°C / 73°F 23°C / 73°F
Humidity Altimeter Pressure
100% 29.94" Hg 1014 hPa